sensor_id;sensor_type;location;lat;lon;timestamp;pressure;altitude;pressure_sealevel;temperature;humidity
75290;BME280;63883;48.996;20.804;2023-02-28T00:00:24;97574.78;;;-4.13;73.00
75290;BME280;63883;48.996;20.804;2023-02-28T00:03:10;97584.47;;;-4.19;73.27
75290;BME280;63883;48.996;20.804;2023-02-28T00:05:36;97587.47;;;-4.26;74.09
75290;BME280;63883;48.996;20.804;2023-02-28T00:08:01;97593.72;;;-4.34;73.91
75290;BME280;63883;48.996;20.804;2023-02-28T00:10:29;97602.59;;;-4.39;74.29
75290;BME280;63883;48.996;20.804;2023-02-28T00:12:59;97606.66;;;-4.41;73.86
75290;BME280;63883;48.996;20.804;2023-02-28T00:15:25;97607.38;;;-4.44;74.02
75290;BME280;63883;48.996;20.804;2023-02-28T00:17:51;97611.03;;;-4.53;74.19
75290;BME280;63883;48.996;20.804;2023-02-28T00:20:18;97606.63;;;-4.59;74.75
75290;BME280;63883;48.996;20.804;2023-02-28T00:22:46;97612.34;;;-4.61;75.23
75290;BME280;63883;48.996;20.804;2023-02-28T00:25:15;97605.50;;;-4.65;75.74
75290;BME280;63883;48.996;20.804;2023-02-28T00:27:41;97606.91;;;-4.70;76.01
75290;BME280;63883;48.996;20.804;2023-02-28T00:30:10;97608.34;;;-4.76;76.12
75290;BME280;63883;48.996;20.804;2023-02-28T00:32:36;97604.75;;;-4.81;75.94
75290;BME280;63883;48.996;20.804;2023-02-28T00:35:02;97601.19;;;-4.86;75.91
75290;BME280;63883;48.996;20.804;2023-02-28T00:37:28;97601.81;;;-4.90;76.16
75290;BME280;63883;48.996;20.804;2023-02-28T00:39:54;97593.75;;;-5.02;76.77
75290;BME280;63883;48.996;20.804;2023-02-28T00:42:20;97593.25;;;-5.13;77.00
75290;BME280;63883;48.996;20.804;2023-02-28T00:44:45;97589.28;;;-5.09;77.05
75290;BME280;63883;48.996;20.804;2023-02-28T00:47:11;97596.03;;;-5.06;77.00
75290;BME280;63883;48.996;20.804;2023-02-28T00:49:37;97597.81;;;-5.04;76.29
75290;BME280;63883;48.996;20.804;2023-02-28T00:52:03;97591.69;;;-5.11;76.77
75290;BME280;63883;48.996;20.804;2023-02-28T00:54:29;97592.53;;;-5.10;76.30
75290;BME280;63883;48.996;20.804;2023-02-28T00:56:55;97599.84;;;-5.13;77.06
75290;BME280;63883;48.996;20.804;2023-02-28T00:59:20;97598.94;;;-5.31;77.00
75290;BME280;63883;48.996;20.804;2023-02-28T01:01:47;97600.94;;;-5.24;76.89
75290;BME280;63883;48.996;20.804;2023-02-28T01:04:13;97602.66;;;-5.23;77.03
75290;BME280;63883;48.996;20.804;2023-02-28T01:06:39;97600.25;;;-5.22;77.09
75290;BME280;63883;48.996;20.804;2023-02-28T01:09:07;97604.06;;;-5.28;77.65
75290;BME280;63883;48.996;20.804;2023-02-28T01:11:33;97598.16;;;-5.30;77.83
75290;BME280;63883;48.996;20.804;2023-02-28T01:14:00;97600.50;;;-5.33;77.68
75290;BME280;63883;48.996;20.804;2023-02-28T01:16:26;97601.28;;;-5.34;77.42
75290;BME280;63883;48.996;20.804;2023-02-28T01:18:52;97598.31;;;-5.43;77.68
75290;BME280;63883;48.996;20.804;2023-02-28T01:21:20;97602.44;;;-5.44;77.99
75290;BME280;63883;48.996;20.804;2023-02-28T01:23:46;97598.16;;;-5.46;77.39
75290;BME280;63883;48.996;20.804;2023-02-28T01:26:22;97597.38;;;-5.45;77.39
75290;BME280;63883;48.996;20.804;2023-02-28T01:28:50;97596.78;;;-5.41;77.58
75290;BME280;63883;48.996;20.804;2023-02-28T01:31:16;97589.03;;;-5.47;77.97
75290;BME280;63883;48.996;20.804;2023-02-28T01:33:44;97589.00;;;-5.64;79.08
75290;BME280;63883;48.996;20.804;2023-02-28T01:36:13;97573.63;;;-5.73;79.52
75290;BME280;63883;48.996;20.804;2023-02-28T01:38:39;97569.81;;;-5.66;79.12
75290;BME280;63883;48.996;20.804;2023-02-28T01:41:06;97579.28;;;-5.59;79.39
75290;BME280;63883;48.996;20.804;2023-02-28T01:46:40;97574.31;;;-5.43;78.86
75290;BME280;63883;48.996;20.804;2023-02-28T01:49:15;97568.97;;;-5.34;77.89
75290;BME280;63883;48.996;20.804;2023-02-28T01:51:54;97577.50;;;-5.29;77.12
75290;BME280;63883;48.996;20.804;2023-02-28T01:54:33;97575.00;;;-5.29;77.21
75290;BME280;63883;48.996;20.804;2023-02-28T01:57:10;97564.69;;;-5.37;77.09
75290;BME280;63883;48.996;20.804;2023-02-28T02:02:12;97574.72;;;-5.52;77.80
75290;BME280;63883;48.996;20.804;2023-02-28T02:04:45;97572.44;;;-5.47;77.87
75290;BME280;63883;48.996;20.804;2023-02-28T02:07:14;97583.66;;;-5.71;79.31
75290;BME280;63883;48.996;20.804;2023-02-28T02:09:40;97587.81;;;-5.86;80.88
75290;BME280;63883;48.996;20.804;2023-02-28T02:12:42;97590.66;;;-6.11;81.58
75290;BME280;63883;48.996;20.804;2023-02-28T02:15:16;97589.53;;;-6.33;83.02
75290;BME280;63883;48.996;20.804;2023-02-28T02:17:50;97598.53;;;-6.35;83.75
75290;BME280;63883;48.996;20.804;2023-02-28T02:20:44;97592.09;;;-6.31;82.96
75290;BME280;63883;48.996;20.804;2023-02-28T02:34:26;97599.47;;;-5.85;81.21
75290;BME280;63883;48.996;20.804;2023-02-28T02:37:14;97605.75;;;-5.76;81.08
75290;BME280;63883;48.996;20.804;2023-02-28T02:42:36;97598.00;;;-5.49;79.70
75290;BME280;63883;48.996;20.804;2023-02-28T02:45:09;97609.25;;;-5.40;79.01
75290;BME280;63883;48.996;20.804;2023-02-28T02:47:38;97602.06;;;-5.35;79.08
75290;BME280;63883;48.996;20.804;2023-02-28T02:50:08;97609.03;;;-5.28;78.84
75290;BME280;63883;48.996;20.804;2023-02-28T02:52:42;97609.88;;;-5.28;78.43
75290;BME280;63883;48.996;20.804;2023-02-28T02:55:11;97614.41;;;-5.21;77.81
75290;BME280;63883;48.996;20.804;2023-02-28T02:57:46;97627.03;;;-5.16;78.22
75290;BME280;63883;48.996;20.804;2023-02-28T03:00:14;97613.06;;;-5.14;78.64
75290;BME280;63883;48.996;20.804;2023-02-28T03:02:42;97618.25;;;-5.09;78.65
75290;BME280;63883;48.996;20.804;2023-02-28T03:05:23;97606.06;;;-5.05;78.13
75290;BME280;63883;48.996;20.804;2023-02-28T03:07:50;97611.09;;;-5.03;78.44
75290;BME280;63883;48.996;20.804;2023-02-28T03:15:59;97600.38;;;-5.02;78.33
75290;BME280;63883;48.996;20.804;2023-02-28T03:21:18;97609.16;;;-4.93;78.09
75290;BME280;63883;48.996;20.804;2023-02-28T03:26:45;97598.91;;;-4.99;78.85
75290;BME280;63883;48.996;20.804;2023-02-28T03:29:23;97603.16;;;-4.96;78.50
75290;BME280;63883;48.996;20.804;2023-02-28T03:34:46;97594.44;;;-4.88;78.50
75290;BME280;63883;48.996;20.804;2023-02-28T03:37:19;97596.06;;;-4.89;78.30
75290;BME280;63883;48.996;20.804;2023-02-28T03:39:56;97594.50;;;-4.87;78.16
75290;BME280;63883;48.996;20.804;2023-02-28T03:42:31;97600.50;;;-4.83;78.69
75290;BME280;63883;48.996;20.804;2023-02-28T03:45:03;97597.94;;;-4.85;78.66
75290;BME280;63883;48.996;20.804;2023-02-28T03:47:38;97600.94;;;-5.08;79.18
75290;BME280;63883;48.996;20.804;2023-02-28T03:50:10;97609.16;;;-5.25;79.75
75290;BME280;63883;48.996;20.804;2023-02-28T03:52:43;97611.13;;;-5.20;79.84
75290;BME280;63883;48.996;20.804;2023-02-28T03:55:12;97615.09;;;-5.23;80.18
75290;BME280;63883;48.996;20.804;2023-02-28T03:57:51;97607.31;;;-5.29;80.91
75290;BME280;63883;48.996;20.804;2023-02-28T04:00:34;97620.38;;;-5.33;81.27
75290;BME280;63883;48.996;20.804;2023-02-28T04:03:00;97616.50;;;-5.28;81.04
75290;BME280;63883;48.996;20.804;2023-02-28T04:05:27;97619.13;;;-5.25;80.75
75290;BME280;63883;48.996;20.804;2023-02-28T04:07:53;97620.31;;;-5.19;79.99
75290;BME280;63883;48.996;20.804;2023-02-28T04:10:19;97615.94;;;-5.23;80.27
75290;BME280;63883;48.996;20.804;2023-02-28T04:12:45;97616.50;;;-5.28;80.00
75290;BME280;63883;48.996;20.804;2023-02-28T04:15:11;97621.28;;;-5.31;80.69
75290;BME280;63883;48.996;20.804;2023-02-28T04:17:37;97622.41;;;-5.26;80.00
75290;BME280;63883;48.996;20.804;2023-02-28T04:20:03;97618.22;;;-5.27;79.70
75290;BME280;63883;48.996;20.804;2023-02-28T04:22:34;97624.41;;;-5.19;80.05
75290;BME280;63883;48.996;20.804;2023-02-28T04:25:00;97620.81;;;-5.24;79.86
75290;BME280;63883;48.996;20.804;2023-02-28T04:27:25;97623.66;;;-5.34;80.74
75290;BME280;63883;48.996;20.804;2023-02-28T04:29:51;97621.75;;;-5.38;81.52
75290;BME280;63883;48.996;20.804;2023-02-28T04:32:17;97622.41;;;-5.42;81.95
75290;BME280;63883;48.996;20.804;2023-02-28T04:34:43;97631.47;;;-5.43;82.00
75290;BME280;63883;48.996;20.804;2023-02-28T04:37:08;97622.41;;;-5.42;81.96
75290;BME280;63883;48.996;20.804;2023-02-28T04:39:36;97619.66;;;-5.47;82.06
75290;BME280;63883;48.996;20.804;2023-02-28T04:42:02;97630.41;;;-5.48;82.58
75290;BME280;63883;48.996;20.804;2023-02-28T04:44:28;97627.06;;;-5.48;82.08
75290;BME280;63883;48.996;20.804;2023-02-28T04:46:54;97629.69;;;-5.45;82.29
75290;BME280;63883;48.996;20.804;2023-02-28T04:49:20;97629.53;;;-5.48;82.06
75290;BME280;63883;48.996;20.804;2023-02-28T04:51:45;97637.91;;;-5.46;82.82
75290;BME280;63883;48.996;20.804;2023-02-28T04:54:11;97632.25;;;-5.44;83.04
75290;BME280;63883;48.996;20.804;2023-02-28T04:56:38;97625.81;;;-5.40;82.72
75290;BME280;63883;48.996;20.804;2023-02-28T04:59:04;97628.44;;;-5.37;82.37
75290;BME280;63883;48.996;20.804;2023-02-28T05:01:32;97636.84;;;-5.35;82.36
75290;BME280;63883;48.996;20.804;2023-02-28T05:04:00;97629.53;;;-5.32;82.92
75290;BME280;63883;48.996;20.804;2023-02-28T05:06:28;97631.31;;;-5.30;82.56
75290;BME280;63883;48.996;20.804;2023-02-28T05:08:55;97623.94;;;-5.28;82.77
75290;BME280;63883;48.996;20.804;2023-02-28T05:11:26;97626.53;;;-5.27;82.41
75290;BME280;63883;48.996;20.804;2023-02-28T05:13:54;97628.38;;;-5.23;82.93
75290;BME280;63883;48.996;20.804;2023-02-28T05:16:20;97634.28;;;-5.21;82.36
75290;BME280;63883;48.996;20.804;2023-02-28T05:18:46;97638.41;;;-5.21;82.41
75290;BME280;63883;48.996;20.804;2023-02-28T05:21:25;97641.88;;;-5.18;82.26
75290;BME280;63883;48.996;20.804;2023-02-28T05:23:52;97641.81;;;-5.19;82.34
75290;BME280;63883;48.996;20.804;2023-02-28T05:26:18;97640.97;;;-5.20;82.43
75290;BME280;63883;48.996;20.804;2023-02-28T05:28:44;97643.59;;;-5.17;82.39
75290;BME280;63883;48.996;20.804;2023-02-28T05:31:10;97648.81;;;-5.12;82.05
75290;BME280;63883;48.996;20.804;2023-02-28T05:33:36;97647.19;;;-5.12;81.86
75290;BME280;63883;48.996;20.804;2023-02-28T05:36:03;97649.59;;;-5.13;81.63
75290;BME280;63883;48.996;20.804;2023-02-28T05:38:29;97648.84;;;-5.11;81.84
75290;BME280;63883;48.996;20.804;2023-02-28T05:40:54;97653.31;;;-5.05;81.56
75290;BME280;63883;48.996;20.804;2023-02-28T05:43:20;97657.66;;;-5.01;81.33
75290;BME280;63883;48.996;20.804;2023-02-28T05:45:45;97666.44;;;-4.91;81.03
75290;BME280;63883;48.996;20.804;2023-02-28T05:48:11;97670.53;;;-4.92;81.85
75290;BME280;63883;48.996;20.804;2023-02-28T05:50:37;97665.88;;;-4.86;81.77
75290;BME280;63883;48.996;20.804;2023-02-28T05:53:03;97671.16;;;-4.80;81.56
75290;BME280;63883;48.996;20.804;2023-02-28T05:55:28;97675.84;;;-4.68;80.53
75290;BME280;63883;48.996;20.804;2023-02-28T05:57:54;97671.25;;;-4.60;79.50
75290;BME280;63883;48.996;20.804;2023-02-28T06:00:21;97676.47;;;-4.56;78.83
75290;BME280;63883;48.996;20.804;2023-02-28T06:02:47;97670.78;;;-4.53;79.60
75290;BME280;63883;48.996;20.804;2023-02-28T06:05:15;97673.59;;;-4.47;80.00
75290;BME280;63883;48.996;20.804;2023-02-28T06:07:42;97673.09;;;-4.40;78.99
75290;BME280;63883;48.996;20.804;2023-02-28T06:10:12;97666.91;;;-4.30;79.63
75290;BME280;63883;48.996;20.804;2023-02-28T06:12:38;97668.69;;;-4.28;78.45
75290;BME280;63883;48.996;20.804;2023-02-28T06:15:04;97672.16;;;-4.24;78.12
75290;BME280;63883;48.996;20.804;2023-02-28T06:17:30;97674.72;;;-4.23;77.99
75290;BME280;63883;48.996;20.804;2023-02-28T06:19:56;97673.47;;;-4.15;77.94
75290;BME280;63883;48.996;20.804;2023-02-28T06:22:21;97680.34;;;-4.09;78.01
75290;BME280;63883;48.996;20.804;2023-02-28T06:24:47;97685.41;;;-4.08;77.16
75290;BME280;63883;48.996;20.804;2023-02-28T06:27:13;97680.59;;;-4.05;77.77
75290;BME280;63883;48.996;20.804;2023-02-28T06:29:38;97683.22;;;-4.02;77.46
75290;BME280;63883;48.996;20.804;2023-02-28T06:32:07;97680.00;;;-3.99;77.45
75290;BME280;63883;48.996;20.804;2023-02-28T06:34:33;97675.88;;;-3.99;76.80
75290;BME280;63883;48.996;20.804;2023-02-28T06:37:01;97672.81;;;-3.93;77.54
75290;BME280;63883;48.996;20.804;2023-02-28T06:39:30;97672.03;;;-3.92;77.24
75290;BME280;63883;48.996;20.804;2023-02-28T06:41:57;97669.13;;;-3.83;76.49
75290;BME280;63883;48.996;20.804;2023-02-28T06:44:23;97678.44;;;-3.79;74.81
75290;BME280;63883;48.996;20.804;2023-02-28T06:46:49;97672.81;;;-3.75;74.86
75290;BME280;63883;48.996;20.804;2023-02-28T06:49:16;97658.72;;;-3.75;74.79
75290;BME280;63883;48.996;20.804;2023-02-28T06:51:43;97665.75;;;-3.66;74.99
75290;BME280;63883;48.996;20.804;2023-02-28T06:54:12;97669.44;;;-3.58;73.94
75290;BME280;63883;48.996;20.804;2023-02-28T06:56:38;97669.78;;;-3.50;73.92
75290;BME280;63883;48.996;20.804;2023-02-28T06:59:04;97666.69;;;-3.45;73.63
75290;BME280;63883;48.996;20.804;2023-02-28T07:01:30;97664.53;;;-3.37;72.81
75290;BME280;63883;48.996;20.804;2023-02-28T07:03:58;97659.09;;;-3.29;73.01
75290;BME280;63883;48.996;20.804;2023-02-28T07:06:26;97662.88;;;-3.19;72.33
75290;BME280;63883;48.996;20.804;2023-02-28T07:08:54;97662.41;;;-3.10;72.39
75290;BME280;63883;48.996;20.804;2023-02-28T07:11:24;97669.47;;;-3.00;72.98
75290;BME280;63883;48.996;20.804;2023-02-28T07:13:54;97671.69;;;-2.87;71.75
75290;BME280;63883;48.996;20.804;2023-02-28T07:16:21;97671.69;;;-2.87;71.72
75290;BME280;63883;48.996;20.804;2023-02-28T07:18:47;97664.44;;;-2.83;72.09
75290;BME280;63883;48.996;20.804;2023-02-28T07:21:13;97663.81;;;-2.77;70.95
75290;BME280;63883;48.996;20.804;2023-02-28T07:23:39;97669.91;;;-2.70;70.95
75290;BME280;63883;48.996;20.804;2023-02-28T07:26:07;97671.94;;;-2.62;70.30
75290;BME280;63883;48.996;20.804;2023-02-28T07:28:33;97677.25;;;-2.54;69.43
75290;BME280;63883;48.996;20.804;2023-02-28T07:31:05;97673.59;;;-2.42;68.45
75290;BME280;63883;48.996;20.804;2023-02-28T07:33:31;97674.09;;;-2.29;66.47
75290;BME280;63883;48.996;20.804;2023-02-28T07:36:05;97669.69;;;-2.14;64.53
75290;BME280;63883;48.996;20.804;2023-02-28T07:38:34;97664.72;;;-2.14;66.32
75290;BME280;63883;48.996;20.804;2023-02-28T07:41:00;97664.91;;;-2.10;64.75
75290;BME280;63883;48.996;20.804;2023-02-28T07:43:25;97659.47;;;-2.00;65.35
75290;BME280;63883;48.996;20.804;2023-02-28T07:45:51;97662.19;;;-1.93;63.93
75290;BME280;63883;48.996;20.804;2023-02-28T07:48:17;97668.34;;;-1.85;64.18
75290;BME280;63883;48.996;20.804;2023-02-28T07:50:42;97667.97;;;-1.74;63.97
75290;BME280;63883;48.996;20.804;2023-02-28T07:53:08;97663.34;;;-1.63;63.85
75290;BME280;63883;48.996;20.804;2023-02-28T07:55:34;97666.94;;;-1.57;63.83
75290;BME280;63883;48.996;20.804;2023-02-28T07:58:00;97664.72;;;-1.49;63.39
75290;BME280;63883;48.996;20.804;2023-02-28T08:00:26;97671.72;;;-1.40;64.15
75290;BME280;63883;48.996;20.804;2023-02-28T08:02:51;97661.28;;;-1.29;64.39
75290;BME280;63883;48.996;20.804;2023-02-28T08:05:17;97674.13;;;-1.20;63.06
75290;BME280;63883;48.996;20.804;2023-02-28T08:07:43;97675.91;;;-1.17;63.06
75290;BME280;63883;48.996;20.804;2023-02-28T08:10:09;97676.78;;;-1.15;62.60
75290;BME280;63883;48.996;20.804;2023-02-28T08:12:35;97681.47;;;-1.00;62.82
75290;BME280;63883;48.996;20.804;2023-02-28T08:15:01;97680.44;;;-0.83;61.88
75290;BME280;63883;48.996;20.804;2023-02-28T08:17:27;97679.91;;;-0.74;60.90
75290;BME280;63883;48.996;20.804;2023-02-28T08:19:53;97678.84;;;-0.81;61.35
75290;BME280;63883;48.996;20.804;2023-02-28T08:22:18;97682.03;;;-0.85;61.13
75290;BME280;63883;48.996;20.804;2023-02-28T08:24:44;97689.50;;;-0.87;61.53
75290;BME280;63883;48.996;20.804;2023-02-28T08:27:10;97681.44;;;-0.78;60.98
75290;BME280;63883;48.996;20.804;2023-02-28T08:29:39;97687.75;;;-0.64;60.04
75290;BME280;63883;48.996;20.804;2023-02-28T08:32:06;97686.56;;;-0.50;59.90
75290;BME280;63883;48.996;20.804;2023-02-28T08:34:32;97688.72;;;-0.36;58.76
75290;BME280;63883;48.996;20.804;2023-02-28T08:36:57;97683.72;;;-0.10;57.94
75290;BME280;63883;48.996;20.804;2023-02-28T08:39:23;97699.94;;;0.27;57.71
75290;BME280;63883;48.996;20.804;2023-02-28T08:41:48;97693.22;;;0.54;56.45
75290;BME280;63883;48.996;20.804;2023-02-28T08:44:14;97701.16;;;0.68;55.55
75290;BME280;63883;48.996;20.804;2023-02-28T08:46:40;97693.84;;;0.75;55.44
75290;BME280;63883;48.996;20.804;2023-02-28T08:49:06;97702.75;;;0.64;56.81
75290;BME280;63883;48.996;20.804;2023-02-28T08:51:32;97696.34;;;0.75;55.37
75290;BME280;63883;48.996;20.804;2023-02-28T08:54:00;97701.28;;;0.72;55.45
75290;BME280;63883;48.996;20.804;2023-02-28T08:56:27;97691.34;;;0.75;55.35
75290;BME280;63883;48.996;20.804;2023-02-28T08:58:55;97701.28;;;0.72;54.54
75290;BME280;63883;48.996;20.804;2023-02-28T09:01:23;97703.34;;;0.86;54.68
75290;BME280;63883;48.996;20.804;2023-02-28T09:03:50;97704.22;;;0.88;53.97
75290;BME280;63883;48.996;20.804;2023-02-28T09:06:18;97697.47;;;0.85;54.29
75290;BME280;63883;48.996;20.804;2023-02-28T09:08:45;97701.88;;;1.24;53.91
75290;BME280;63883;48.996;20.804;2023-02-28T09:11:11;97697.56;;;1.49;52.11
75290;BME280;63883;48.996;20.804;2023-02-28T09:13:38;97699.63;;;1.64;52.02
75290;BME280;63883;48.996;20.804;2023-02-28T09:16:06;97685.41;;;1.65;51.88
75290;BME280;63883;48.996;20.804;2023-02-28T09:18:34;97689.63;;;2.00;51.57
75290;BME280;63883;48.996;20.804;2023-02-28T09:21:07;97684.53;;;3.58;47.61
75290;BME280;63883;48.996;20.804;2023-02-28T09:23:33;97683.88;;;4.78;43.34
75290;BME280;63883;48.996;20.804;2023-02-28T09:25:59;97671.44;;;3.78;45.09
75290;BME280;63883;48.996;20.804;2023-02-28T09:28:25;97679.84;;;3.31;46.20
75290;BME280;63883;48.996;20.804;2023-02-28T09:30:53;97679.31;;;3.05;47.15
75290;BME280;63883;48.996;20.804;2023-02-28T09:33:20;97668.53;;;2.70;48.16
75290;BME280;63883;48.996;20.804;2023-02-28T09:35:47;97675.31;;;2.72;47.89
75290;BME280;63883;48.996;20.804;2023-02-28T09:38:14;97677.19;;;3.23;47.55
75290;BME280;63883;48.996;20.804;2023-02-28T09:40:50;97682.03;;;3.59;45.91
75290;BME280;63883;48.996;20.804;2023-02-28T09:43:18;97671.41;;;4.90;43.27
75290;BME280;63883;48.996;20.804;2023-02-28T09:45:51;97671.53;;;5.00;42.44
75290;BME280;63883;48.996;20.804;2023-02-28T09:48:26;97674.81;;;4.33;42.79
75290;BME280;63883;48.996;20.804;2023-02-28T09:51:00;97677.22;;;4.24;43.62
75290;BME280;63883;48.996;20.804;2023-02-28T09:56:11;97670.69;;;5.01;41.34
75290;BME280;63883;48.996;20.804;2023-02-28T10:01:17;97675.13;;;6.02;40.05
75290;BME280;63883;48.996;20.804;2023-02-28T10:03:57;97670.19;;;6.16;38.80
75290;BME280;63883;48.996;20.804;2023-02-28T10:06:33;97666.94;;;6.37;38.43
75290;BME280;63883;48.996;20.804;2023-02-28T10:09:29;97661.91;;;6.41;38.79
75290;BME280;63883;48.996;20.804;2023-02-28T10:11:55;97671.31;;;6.60;39.57
75290;BME280;63883;48.996;20.804;2023-02-28T10:14:24;97663.66;;;6.51;38.17
75290;BME280;63883;48.996;20.804;2023-02-28T10:16:56;97667.78;;;6.36;38.77
75290;BME280;63883;48.996;20.804;2023-02-28T10:22:01;97657.53;;;6.17;39.39
75290;BME280;63883;48.996;20.804;2023-02-28T10:24:55;97651.00;;;6.53;38.88
75290;BME280;63883;48.996;20.804;2023-02-28T10:27:31;97644.28;;;6.55;38.35
75290;BME280;63883;48.996;20.804;2023-02-28T10:30:00;97641.94;;;7.03;37.58
75290;BME280;63883;48.996;20.804;2023-02-28T10:32:32;97631.13;;;8.35;35.32
75290;BME280;63883;48.996;20.804;2023-02-28T10:35:18;97634.50;;;8.16;35.02
75290;BME280;63883;48.996;20.804;2023-02-28T10:37:47;97626.81;;;8.58;33.93
75290;BME280;63883;48.996;20.804;2023-02-28T10:45:34;97614.88;;;8.85;33.66
75290;BME280;63883;48.996;20.804;2023-02-28T10:50:50;97604.66;;;9.00;34.30
75290;BME280;63883;48.996;20.804;2023-02-28T10:58:55;97608.19;;;7.30;36.47
75290;BME280;63883;48.996;20.804;2023-02-28T11:01:45;97610.53;;;6.66;37.59
75290;BME280;63883;48.996;20.804;2023-02-28T11:09:45;97600.69;;;5.85;39.44
75290;BME280;63883;48.996;20.804;2023-02-28T11:12:26;97594.78;;;5.86;39.85
75290;BME280;63883;48.996;20.804;2023-02-28T11:15:02;97595.31;;;5.45;40.69
75290;BME280;63883;48.996;20.804;2023-02-28T11:17:31;97591.91;;;5.43;40.73
75290;BME280;63883;48.996;20.804;2023-02-28T11:20:05;97596.22;;;5.55;40.59
75290;BME280;63883;48.996;20.804;2023-02-28T11:22:37;97594.28;;;5.25;41.31
75290;BME280;63883;48.996;20.804;2023-02-28T11:25:09;97588.31;;;5.22;41.47
75290;BME280;63883;48.996;20.804;2023-02-28T11:27:45;97592.06;;;4.79;42.31
75290;BME280;63883;48.996;20.804;2023-02-28T11:30:36;97595.69;;;4.32;43.17
75290;BME280;63883;48.996;20.804;2023-02-28T11:33:29;97594.88;;;4.35;44.23
75290;BME280;63883;48.996;20.804;2023-02-28T11:36:07;97598.59;;;4.61;43.29
75290;BME280;63883;48.996;20.804;2023-02-28T11:38:36;97587.09;;;4.85;42.15
75290;BME280;63883;48.996;20.804;2023-02-28T11:46:27;97584.59;;;5.78;42.07
75290;BME280;63883;48.996;20.804;2023-02-28T12:03:34;97572.19;;;6.04;40.89
75290;BME280;63883;48.996;20.804;2023-02-28T12:11:19;97556.78;;;5.84;41.22
75290;BME280;63883;48.996;20.804;2023-02-28T12:22:22;97542.78;;;6.31;40.43
75290;BME280;63883;48.996;20.804;2023-02-28T12:27:29;97537.69;;;6.26;40.22
75290;BME280;63883;48.996;20.804;2023-02-28T12:29:59;97547.66;;;6.00;40.22
75290;BME280;63883;48.996;20.804;2023-02-28T12:32:35;97537.72;;;6.34;40.46
75290;BME280;63883;48.996;20.804;2023-02-28T12:35:11;97541.03;;;6.23;39.95
75290;BME280;63883;48.996;20.804;2023-02-28T12:37:41;97552.78;;;6.09;40.38
75290;BME280;63883;48.996;20.804;2023-02-28T12:40:15;97552.72;;;6.00;40.86
75290;BME280;63883;48.996;20.804;2023-02-28T12:42:46;97544.28;;;6.00;40.91
75290;BME280;63883;48.996;20.804;2023-02-28T12:45:20;97549.38;;;6.04;40.36
75290;BME280;63883;48.996;20.804;2023-02-28T12:47:50;97543.47;;;6.04;40.25
75290;BME280;63883;48.996;20.804;2023-02-28T12:50:17;97536.72;;;6.03;40.99
75290;BME280;63883;48.996;20.804;2023-02-28T12:52:48;97541.78;;;6.03;41.02
75290;BME280;63883;48.996;20.804;2023-02-28T12:58:25;97526.72;;;6.30;40.67
75290;BME280;63883;48.996;20.804;2023-02-28T13:09:19;97528.38;;;6.23;40.36
75290;BME280;63883;48.996;20.804;2023-02-28T13:11:49;97531.78;;;6.30;39.91
75290;BME280;63883;48.996;20.804;2023-02-28T13:17:11;97521.66;;;6.25;40.33
75290;BME280;63883;48.996;20.804;2023-02-28T13:22:20;97519.78;;;5.96;40.77
75290;BME280;63883;48.996;20.804;2023-02-28T13:25:01;97522.38;;;6.06;40.77
75290;BME280;63883;48.996;20.804;2023-02-28T13:27:38;97525.75;;;6.08;40.88
75290;BME280;63883;48.996;20.804;2023-02-28T13:35:46;97520.88;;;6.40;40.46
75290;BME280;63883;48.996;20.804;2023-02-28T13:38:33;97520.72;;;6.13;40.52
75290;BME280;63883;48.996;20.804;2023-02-28T13:44:05;97517.09;;;5.76;41.69
75290;BME280;63883;48.996;20.804;2023-02-28T13:46:34;97511.88;;;5.52;42.06
75290;BME280;63883;48.996;20.804;2023-02-28T13:57:52;97509.53;;;5.80;41.41
75290;BME280;63883;48.996;20.804;2023-02-28T14:05:33;97502.81;;;5.85;41.73
75290;BME280;63883;48.996;20.804;2023-02-28T14:08:05;97500.28;;;5.87;41.82
75290;BME280;63883;48.996;20.804;2023-02-28T14:10:39;97502.72;;;5.72;41.67
75290;BME280;63883;48.996;20.804;2023-02-28T14:13:36;97500.22;;;5.75;42.20
75290;BME280;63883;48.996;20.804;2023-02-28T14:16:00;97488.44;;;5.84;42.37
75290;BME280;63883;48.996;20.804;2023-02-28T14:18:32;97488.53;;;5.92;42.02
75290;BME280;63883;48.996;20.804;2023-02-28T14:31:46;97485.00;;;5.72;42.84
75290;BME280;63883;48.996;20.804;2023-02-28T14:37:13;97479.66;;;5.34;43.31
75290;BME280;63883;48.996;20.804;2023-02-28T14:39:41;97482.22;;;5.32;44.30
75290;BME280;63883;48.996;20.804;2023-02-28T14:44:54;97488.09;;;5.30;44.27
75290;BME280;63883;48.996;20.804;2023-02-28T14:47:23;97486.38;;;5.27;45.01
75290;BME280;63883;48.996;20.804;2023-02-28T14:49:52;97496.69;;;5.52;44.67
75290;BME280;63883;48.996;20.804;2023-02-28T14:52:21;97501.78;;;5.55;43.70
75290;BME280;63883;48.996;20.804;2023-02-28T14:54:53;97498.47;;;5.62;43.73
75290;BME280;63883;48.996;20.804;2023-02-28T14:57:27;97501.75;;;5.52;43.68
75290;BME280;63883;48.996;20.804;2023-02-28T15:02:41;97503.53;;;5.65;43.26
75290;BME280;63883;48.996;20.804;2023-02-28T15:07:36;97500.19;;;5.69;43.78
75290;BME280;63883;48.996;20.804;2023-02-28T15:10:09;97505.19;;;5.64;43.55
75290;BME280;63883;48.996;20.804;2023-02-28T15:12:35;97503.41;;;5.49;43.98
75290;BME280;63883;48.996;20.804;2023-02-28T15:15:02;97500.00;;;5.44;43.90
75290;BME280;63883;48.996;20.804;2023-02-28T15:17:28;97498.88;;;5.12;44.58
75290;BME280;63883;48.996;20.804;2023-02-28T15:19:55;97500.47;;;5.01;45.63
75290;BME280;63883;48.996;20.804;2023-02-28T15:22:28;97497.81;;;4.87;45.62
75290;BME280;63883;48.996;20.804;2023-02-28T15:24:57;97493.44;;;4.71;45.81
75290;BME280;63883;48.996;20.804;2023-02-28T15:27:29;97500.00;;;4.55;46.66
75290;BME280;63883;48.996;20.804;2023-02-28T15:30:04;97498.25;;;4.50;47.28
75290;BME280;63883;48.996;20.804;2023-02-28T15:32:31;97499.63;;;4.23;47.68
75290;BME280;63883;48.996;20.804;2023-02-28T15:34:59;97503.69;;;4.12;48.39
75290;BME280;63883;48.996;20.804;2023-02-28T15:38:24;97498.44;;;3.97;48.54
75290;BME280;63883;48.996;20.804;2023-02-28T15:40:58;97499.94;;;3.83;49.86
75290;BME280;63883;48.996;20.804;2023-02-28T15:43:36;97498.94;;;3.72;50.60